createdAt,value
2019-05-01T00:01:31.931Z,10.60
2019-05-01T00:04:21.804Z,10.50
2019-05-01T00:06:56.969Z,10.20
2019-05-01T00:09:28.721Z,10.20
2019-05-01T00:11:59.698Z,10.10
2019-05-01T00:14:30.854Z,10.10
2019-05-01T00:17:01.817Z,10.00
2019-05-01T00:19:33.163Z,9.90
2019-05-01T00:22:03.915Z,10.00
2019-05-01T00:24:35.109Z,9.90
2019-05-01T00:27:06.423Z,9.80
2019-05-01T00:29:37.648Z,9.80
2019-05-01T00:32:08.779Z,9.90
2019-05-01T00:34:40.122Z,9.70
2019-05-01T00:37:11.919Z,9.70
2019-05-01T00:39:43.340Z,9.60
2019-05-01T00:42:14.423Z,9.50
2019-05-01T00:44:45.616Z,9.50
2019-05-01T00:47:18.818Z,9.50
2019-05-01T00:49:49.556Z,9.50
2019-05-01T00:52:20.706Z,9.50
2019-05-01T00:54:53.268Z,9.40
2019-05-01T00:57:32.059Z,9.40
2019-05-01T01:00:42.130Z,9.40
2019-05-01T01:03:02.240Z,9.40
2019-05-01T01:05:33.806Z,9.30
2019-05-01T01:08:04.878Z,9.30
2019-05-01T01:10:35.779Z,9.30
2019-05-01T01:13:06.818Z,9.20
2019-05-01T01:15:37.764Z,9.30
2019-05-01T01:18:08.938Z,9.10
2019-05-01T01:20:39.810Z,9.20
2019-05-01T01:23:10.662Z,9.10
2019-05-01T01:25:41.419Z,9.10
2019-05-01T01:28:12.692Z,8.90
2019-05-01T01:30:55.787Z,8.90
2019-05-01T01:33:16.454Z,8.90
2019-05-01T01:35:47.515Z,8.90
2019-05-01T01:38:18.429Z,8.80
2019-05-01T01:40:50.302Z,8.70
2019-05-01T01:43:40.278Z,8.70
2019-05-01T01:46:13.327Z,8.70
2019-05-01T01:48:44.166Z,8.60
2019-05-01T01:51:18.094Z,8.60
2019-05-01T01:53:49.781Z,8.50
2019-05-01T01:56:22.765Z,8.50
2019-05-01T01:58:54.978Z,8.50
2019-05-01T02:01:41.104Z,8.40
2019-05-01T02:04:37.458Z,8.40
2019-05-01T02:07:08.769Z,8.40
2019-05-01T02:09:39.723Z,8.30
2019-05-01T02:12:11.012Z,8.40
2019-05-01T02:14:42.199Z,8.20
2019-05-01T02:17:13.687Z,8.30
2019-05-01T02:19:44.637Z,8.30
2019-05-01T02:22:16.377Z,8.30
2019-05-01T02:24:47.422Z,8.30
2019-05-01T02:27:24.797Z,8.30
2019-05-01T02:29:58.714Z,8.30
2019-05-01T02:32:31.486Z,8.30
2019-05-01T02:35:03.997Z,8.30
2019-05-01T02:37:37.320Z,8.40
2019-05-01T02:40:34.519Z,8.40
2019-05-01T02:43:06.339Z,8.30
2019-05-01T02:45:38.859Z,8.30
2019-05-01T02:48:10.520Z,8.20
2019-05-01T02:50:43.100Z,8.10
2019-05-01T02:53:14.554Z,8.10
2019-05-01T02:55:51.017Z,8.10
2019-05-01T02:58:23.014Z,8.10
2019-05-01T03:00:54.683Z,8.20
2019-05-01T03:03:29.009Z,8.20
2019-05-01T03:05:59.969Z,8.10
2019-05-01T03:08:30.887Z,8.10
2019-05-01T03:11:02.168Z,8.10
2019-05-01T03:13:33.971Z,8.00
2019-05-01T03:16:06.851Z,8.00
2019-05-01T03:18:42.049Z,8.10
2019-05-01T03:21:32.377Z,8.10
2019-05-01T03:24:11.010Z,8.10
2019-05-01T03:26:42.052Z,8.20
2019-05-01T03:29:13.463Z,8.20
2019-05-01T03:31:44.447Z,8.10
2019-05-01T03:34:15.830Z,8.20
2019-05-01T03:36:47.708Z,8.20
2019-05-01T03:39:19.358Z,8.20
2019-05-01T03:41:50.372Z,8.30
2019-05-01T03:44:21.900Z,8.30
2019-05-01T03:46:53.390Z,8.30
2019-05-01T03:49:24.427Z,8.30
2019-05-01T03:51:55.607Z,8.40
2019-05-01T03:54:27.214Z,8.30
2019-05-01T03:56:58.889Z,8.30
2019-05-01T03:59:30.330Z,8.30
2019-05-01T04:02:33.263Z,8.40
2019-05-01T04:04:53.795Z,8.40
2019-05-01T04:07:25.259Z,8.60
2019-05-01T04:09:56.507Z,8.60
2019-05-01T04:12:28.699Z,8.50
2019-05-01T04:15:00.126Z,8.50
2019-05-01T04:17:39.059Z,8.50
2019-05-01T04:20:10.300Z,8.40
2019-05-01T04:22:41.385Z,8.50
2019-05-01T04:25:12.901Z,8.70
2019-05-01T04:27:46.587Z,8.70
2019-05-01T04:30:28.068Z,8.70
2019-05-01T04:33:03.086Z,8.80
2019-05-01T04:35:59.962Z,8.70
2019-05-01T04:38:31.691Z,8.80
2019-05-01T04:41:03.201Z,8.80
2019-05-01T04:43:34.607Z,9.00
2019-05-01T04:46:06.522Z,9.00
2019-05-01T04:48:38.026Z,9.10
2019-05-01T04:51:09.522Z,9.10
2019-05-01T04:53:41.220Z,9.20
2019-05-01T04:56:12.026Z,9.20
2019-05-01T04:58:42.958Z,9.00
2019-05-01T05:01:14.977Z,8.80
2019-05-01T05:03:47.767Z,8.70
2019-05-01T05:06:19.507Z,8.80
2019-05-01T05:08:51.146Z,8.70
2019-05-01T05:11:26.009Z,8.70
2019-05-01T05:14:14.880Z,8.60
2019-05-01T05:16:50.917Z,8.60
2019-05-01T05:19:21.743Z,8.70
2019-05-01T05:21:53.622Z,8.90
2019-05-01T05:24:25.715Z,8.90
2019-05-01T05:26:58.119Z,9.00
2019-05-01T05:29:30.219Z,9.10
2019-05-01T05:32:03.780Z,9.20
2019-05-01T05:34:35.983Z,9.30
2019-05-01T05:37:16.338Z,9.40
2019-05-01T05:39:48.698Z,9.20
2019-05-01T05:42:19.948Z,9.20
2019-05-01T05:44:52.315Z,9.30
2019-05-01T05:47:25.612Z,9.40
2019-05-01T05:49:56.899Z,9.50
2019-05-01T05:52:40.400Z,9.60
2019-05-01T05:55:36.519Z,9.80
2019-05-01T05:58:27.219Z,9.80
2019-05-01T06:01:28.980Z,9.90
2019-05-01T06:04:30.968Z,10.00
2019-05-01T06:07:32.282Z,10.10
2019-05-01T06:10:14.087Z,10.40
2019-05-01T06:13:23.615Z,10.90
2019-05-01T06:16:12.206Z,11.40
2019-05-01T06:19:04.858Z,12.00
2019-05-01T06:21:46.031Z,12.70
2019-05-01T06:24:28.026Z,13.30
2019-05-01T06:26:59.848Z,13.40
2019-05-01T06:29:35.801Z,13.50
2019-05-01T06:32:04.561Z,13.70
2019-05-01T06:34:35.601Z,14.30
2019-05-01T06:37:07.698Z,14.50
2019-05-01T06:39:42.947Z,14.90
2019-05-01T06:42:14.970Z,15.40
2019-05-01T06:44:55.026Z,15.90
2019-05-01T06:47:38.324Z,15.90
2019-05-01T06:50:32.089Z,15.10
2019-05-01T06:53:05.041Z,14.60
2019-05-01T06:55:37.366Z,14.50
2019-05-01T06:58:08.157Z,15.20
2019-05-01T07:00:43.104Z,15.80
2019-05-01T07:03:14.499Z,16.70
2019-05-01T07:05:49.049Z,17.60
2019-05-01T07:08:24.816Z,18.20
2019-05-01T07:10:52.119Z,18.50
2019-05-01T07:13:23.260Z,19.30
2019-05-01T07:15:58.363Z,19.80
2019-05-01T07:18:29.210Z,20.10
2019-05-01T07:21:00.520Z,20.80
2019-05-01T07:23:31.726Z,21.70
2019-05-01T07:26:10.016Z,22.80
2019-05-01T07:28:40.715Z,23.40
2019-05-01T07:31:15.837Z,23.10
2019-05-01T07:33:51.314Z,22.80
2019-05-01T07:36:21.019Z,22.90
2019-05-01T07:38:53.050Z,23.80
2019-05-01T07:41:24.107Z,23.20
2019-05-01T07:44:23.909Z,22.60
2019-05-01T07:47:05.126Z,22.60
2019-05-01T07:49:54.722Z,21.90
2019-05-01T07:52:26.677Z,21.40
2019-05-01T07:54:59.330Z,21.50
2019-05-01T07:57:34.168Z,20.50
2019-05-01T08:00:08.539Z,20.50
2019-05-01T08:02:39.723Z,20.40
2019-05-01T08:05:11.800Z,20.60
2019-05-01T08:07:43.007Z,20.50
2019-05-01T08:10:15.226Z,20.50
2019-05-01T08:12:46.280Z,20.20
2019-05-01T08:15:22.518Z,20.70
2019-05-01T08:17:55.743Z,20.60
2019-05-01T08:20:32.798Z,21.30
2019-05-01T08:23:07.702Z,21.90
2019-05-01T08:25:36.542Z,21.60
2019-05-01T08:28:16.928Z,21.70
2019-05-01T08:31:08.135Z,22.00
2019-05-01T08:34:01.983Z,21.60
2019-05-01T08:36:32.849Z,22.30
2019-05-01T08:39:09.186Z,23.10
2019-05-01T08:41:39.587Z,24.20
2019-05-01T08:44:11.261Z,24.70
2019-05-01T08:47:01.390Z,26.10
2019-05-01T08:49:50.635Z,26.50
2019-05-01T08:52:24.383Z,26.50
2019-05-01T08:54:56.276Z,25.80
2019-05-01T08:57:29.008Z,25.10
2019-05-01T09:00:01.513Z,25.30
2019-05-01T09:02:36.631Z,26.40
2019-05-01T09:05:07.224Z,27.80
2019-05-01T09:07:38.814Z,27.70
2019-05-01T09:10:11.558Z,27.10
2019-05-01T09:12:46.750Z,28.10
2019-05-01T09:15:17.369Z,29.60
2019-05-01T09:17:50.042Z,30.10
2019-05-01T09:20:21.540Z,31.00
2019-05-01T09:22:53.090Z,31.60
2019-05-01T09:25:35.257Z,31.10
2019-05-01T09:28:18.891Z,31.20
2019-05-01T09:31:02.181Z,32.00
2019-05-01T09:33:33.053Z,32.70
2019-05-01T09:36:04.632Z,32.10
2019-05-01T09:38:36.022Z,31.70
2019-05-01T09:41:07.668Z,31.70
2019-05-01T09:43:39.011Z,31.40
2019-05-01T09:46:27.485Z,32.00
2019-05-01T09:48:58.551Z,32.30
2019-05-01T09:51:47.518Z,33.20
2019-05-01T09:54:28.885Z,34.20
2019-05-01T09:57:00.219Z,33.80
2019-05-01T09:59:31.392Z,33.80
2019-05-01T10:02:03.107Z,33.40
2019-05-01T10:04:35.312Z,33.20
2019-05-01T10:07:09.295Z,32.60
2019-05-01T10:09:40.945Z,31.30
2019-05-01T10:12:14.870Z,32.00
2019-05-01T10:14:46.229Z,33.30
2019-05-01T10:17:17.906Z,33.80
2019-05-01T10:19:50.252Z,32.70
2019-05-01T10:22:23.761Z,31.80
2019-05-01T10:24:56.032Z,33.00
2019-05-01T10:27:30.957Z,33.30
2019-05-01T10:30:21.739Z,34.50
2019-05-01T10:32:59.724Z,33.60
2019-05-01T10:35:42.836Z,34.30
2019-05-01T10:38:12.512Z,35.60
2019-05-01T10:40:44.586Z,35.30
2019-05-01T10:43:15.729Z,34.80
2019-05-01T10:45:46.963Z,35.00
2019-05-01T10:48:18.477Z,35.10
2019-05-01T10:50:51.097Z,35.80
2019-05-01T10:53:31.196Z,34.20
2019-05-01T10:56:05.272Z,32.70
2019-05-01T10:58:43.504Z,31.40
2019-05-01T11:01:23.157Z,31.20
2019-05-01T11:03:54.706Z,32.60
2019-05-01T11:06:28.842Z,34.10
2019-05-01T11:09:00.698Z,33.70
2019-05-01T11:11:36.343Z,33.10
2019-05-01T11:14:08.403Z,33.80
2019-05-01T11:16:41.188Z,34.50
2019-05-01T11:19:15.412Z,34.40
2019-05-01T11:21:47.421Z,35.00
2019-05-01T11:24:19.911Z,35.20
2019-05-01T11:26:52.635Z,34.40
2019-05-01T11:29:24.276Z,35.00
2019-05-01T11:32:04.410Z,35.00
2019-05-01T11:34:53.400Z,34.10
2019-05-01T11:37:56.586Z,33.40
2019-05-01T11:40:35.069Z,32.10
2019-05-01T11:43:07.191Z,31.30
2019-05-01T11:45:38.838Z,31.20
2019-05-01T11:48:13.492Z,32.20
2019-05-01T11:50:44.588Z,32.80
2019-05-01T11:53:16.103Z,32.10
2019-05-01T11:55:48.526Z,30.70
2019-05-01T11:58:21.179Z,31.20
2019-05-01T12:00:54.023Z,32.70
2019-05-01T12:03:25.855Z,32.70
2019-05-01T12:06:02.585Z,32.10
2019-05-01T12:08:34.544Z,30.50
2019-05-01T12:11:06.993Z,29.50
2019-05-01T12:13:43.834Z,28.70
2019-05-01T12:16:21.821Z,27.20
2019-05-01T12:18:53.144Z,27.30
2019-05-01T12:21:24.641Z,27.70
2019-05-01T12:23:55.744Z,27.20
2019-05-01T12:26:27.304Z,26.50
2019-05-01T12:29:03.023Z,26.00
2019-05-01T12:31:34.343Z,25.70
2019-05-01T12:34:09.708Z,25.70
2019-05-01T12:36:41.863Z,26.90
2019-05-01T12:39:16.116Z,27.50
2019-05-01T12:42:00.113Z,27.70
2019-05-01T12:44:31.986Z,27.00
2019-05-01T12:47:12.147Z,27.70
2019-05-01T12:49:45.350Z,28.70
2019-05-01T12:52:25.548Z,29.30
2019-05-01T12:55:19.143Z,29.50
2019-05-01T12:57:50.467Z,29.40
2019-05-01T13:00:25.225Z,28.00
2019-05-01T13:02:57.066Z,26.60
2019-05-01T13:05:29.746Z,25.90
2019-05-01T13:08:00.741Z,26.10
2019-05-01T13:10:32.492Z,26.50
2019-05-01T13:13:04.392Z,26.60
2019-05-01T13:15:38.043Z,25.70
2019-05-01T13:18:09.463Z,25.10
2019-05-01T13:20:44.486Z,24.60
2019-05-01T13:23:16.607Z,25.10
2019-05-01T13:25:53.590Z,25.50
2019-05-01T13:28:44.016Z,25.50
2019-05-01T13:31:31.525Z,25.30
2019-05-01T13:34:08.274Z,24.90
2019-05-01T13:36:40.406Z,25.00
2019-05-01T13:39:13.384Z,24.30
2019-05-01T13:41:44.263Z,23.30
2019-05-01T13:44:17.916Z,23.10
2019-05-01T13:46:49.663Z,23.10
2019-05-01T13:49:21.307Z,22.80
2019-05-01T13:51:52.495Z,22.60
2019-05-01T13:54:25.595Z,22.50
2019-05-01T13:57:08.326Z,22.30
2019-05-01T13:59:39.510Z,22.80
2019-05-01T14:02:11.064Z,22.60
2019-05-01T14:04:42.219Z,22.60
2019-05-01T14:07:16.557Z,22.20
2019-05-01T14:09:46.185Z,21.90
2019-05-01T14:12:17.677Z,21.70
2019-05-01T14:14:48.957Z,21.40
2019-05-01T14:17:20.463Z,21.40
2019-05-01T14:20:09.757Z,21.20
2019-05-01T14:22:47.638Z,21.00
2019-05-01T14:25:19.612Z,20.80
2019-05-01T14:28:13.206Z,20.60
2019-05-01T14:30:49.146Z,20.30
2019-05-01T14:33:45.270Z,20.30
2019-05-01T14:36:37.032Z,20.20
2019-05-01T14:40:10.705Z,20.40
2019-05-01T14:43:14.708Z,19.90
2019-05-01T14:46:04.945Z,19.30
2019-05-01T14:48:59.823Z,19.10
2019-05-01T14:52:21.526Z,19.40
2019-05-01T14:55:42.477Z,20.20
2019-05-01T14:58:24.346Z,20.50
2019-05-01T15:01:16.815Z,20.40
2019-05-01T15:03:55.242Z,20.20
2019-05-01T15:06:26.623Z,20.20
2019-05-01T15:08:58.784Z,19.80
2019-05-01T15:11:30.472Z,19.40
2019-05-01T15:14:34.366Z,19.30
2019-05-01T15:17:19.228Z,19.20
2019-05-01T15:20:00.243Z,19.40
2019-05-01T15:22:31.387Z,19.50
2019-05-01T15:25:02.981Z,19.10
2019-05-01T15:27:34.637Z,19.00
2019-05-01T15:30:07.024Z,18.70
2019-05-01T15:32:39.192Z,18.50
2019-05-01T15:35:16.249Z,18.40
2019-05-01T15:37:56.388Z,18.40
2019-05-01T15:40:30.281Z,18.20
2019-05-01T15:43:30.103Z,18.50
2019-05-01T15:46:01.824Z,18.70
2019-05-01T15:48:33.231Z,18.60
2019-05-01T15:51:04.837Z,18.50
2019-05-01T15:53:42.307Z,18.70
2019-05-01T15:56:18.023Z,18.90
2019-05-01T15:58:51.721Z,18.80
2019-05-01T16:01:24.951Z,18.80
2019-05-01T16:04:06.782Z,18.60
2019-05-01T16:06:49.954Z,18.60
2019-05-01T16:09:23.901Z,18.60
2019-05-01T16:12:14.342Z,18.70
2019-05-01T16:14:50.863Z,18.50
2019-05-01T16:17:24.269Z,18.30
2019-05-01T16:19:55.407Z,18.30
2019-05-01T16:22:29.952Z,18.30
2019-05-01T16:25:11.925Z,18.20
2019-05-01T16:27:44.716Z,18.10
2019-05-01T16:30:21.462Z,17.80
2019-05-01T16:32:52.679Z,17.60
2019-05-01T16:35:23.787Z,17.50
2019-05-01T16:37:58.592Z,17.60
2019-05-01T16:41:06.891Z,17.60
2019-05-01T16:43:39.276Z,17.50
2019-05-01T16:46:10.640Z,17.60
2019-05-01T16:48:41.784Z,17.80
2019-05-01T16:51:14.716Z,17.60
2019-05-01T16:53:46.982Z,17.40
2019-05-01T16:56:18.466Z,17.40
2019-05-01T16:58:50.233Z,17.50
2019-05-01T17:01:40.675Z,17.70
2019-05-01T17:04:36.383Z,17.60
2019-05-01T17:07:27.880Z,17.30
2019-05-01T17:10:23.723Z,17.30
2019-05-01T17:12:56.158Z,17.20
2019-05-01T17:15:32.637Z,17.20
2019-05-01T17:18:04.944Z,17.20
2019-05-01T17:20:36.567Z,17.20
2019-05-01T17:23:08.559Z,17.20
2019-05-01T17:25:40.622Z,17.20
2019-05-01T17:28:12.929Z,17.20
2019-05-01T17:30:48.993Z,17.20
2019-05-01T17:33:22.224Z,17.10
2019-05-01T17:35:55.318Z,17.10
2019-05-01T17:38:27.636Z,17.10
2019-05-01T17:41:09.236Z,17.10
2019-05-01T17:43:44.715Z,17.10
2019-05-01T17:46:26.464Z,17.20
2019-05-01T17:49:15.377Z,17.30
2019-05-01T17:51:51.884Z,17.10
2019-05-01T17:54:24.698Z,17.10
2019-05-01T17:56:58.356Z,17.10
2019-05-01T17:59:32.780Z,17.10
2019-05-01T18:02:19.879Z,17.20
2019-05-01T18:05:00.074Z,17.20
2019-05-01T18:07:33.150Z,17.20
2019-05-01T18:10:07.135Z,16.90
2019-05-01T18:12:39.620Z,16.90
2019-05-01T18:15:12.803Z,16.80
2019-05-01T18:17:45.142Z,16.80
2019-05-01T18:20:17.332Z,16.70
2019-05-01T18:23:01.285Z,16.80
2019-05-01T18:25:45.909Z,16.70
2019-05-01T18:28:37.665Z,16.60
2019-05-01T18:31:13.418Z,16.50
2019-05-01T18:33:45.560Z,16.40
2019-05-01T18:36:19.835Z,16.20
2019-05-01T18:39:01.103Z,16.10
2019-05-01T18:41:39.093Z,16.00
2019-05-01T18:44:11.475Z,15.80
2019-05-01T18:46:43.950Z,15.80
2019-05-01T18:49:18.364Z,15.60
2019-05-01T18:51:51.809Z,15.60
2019-05-01T18:54:23.956Z,15.60
2019-05-01T18:56:56.526Z,15.50
2019-05-01T18:59:28.599Z,15.60
2019-05-01T19:02:05.693Z,15.50
2019-05-01T19:04:38.499Z,15.50
2019-05-01T19:07:11.518Z,15.50
2019-05-01T19:09:45.003Z,15.50
2019-05-01T19:12:18.145Z,15.60
2019-05-01T19:14:54.799Z,15.50
2019-05-01T19:17:29.550Z,15.50
2019-05-01T19:20:02.143Z,15.50
2019-05-01T19:22:38.816Z,15.50
2019-05-01T19:25:16.070Z,15.50
2019-05-01T19:27:50.166Z,15.50
2019-05-01T19:30:31.805Z,15.50
2019-05-01T19:33:05.945Z,15.60
2019-05-01T19:35:46.466Z,15.60
2019-05-01T19:38:24.146Z,15.50
2019-05-01T19:40:57.881Z,15.50
2019-05-01T19:43:30.629Z,15.50
2019-05-01T19:46:05.039Z,15.40
2019-05-01T19:48:39.109Z,15.30
2019-05-01T19:51:14.275Z,15.30
2019-05-01T19:53:51.664Z,15.30
2019-05-01T19:56:27.682Z,15.20
2019-05-01T19:59:06.605Z,15.30
2019-05-01T20:01:49.095Z,15.20
2019-05-01T20:04:20.420Z,15.20
2019-05-01T20:06:54.987Z,15.10
2019-05-01T20:09:31.124Z,15.10
2019-05-01T20:12:03.280Z,15.00
2019-05-01T20:14:36.584Z,15.10
2019-05-01T20:17:10.174Z,15.00
2019-05-01T20:19:43.740Z,14.90
2019-05-01T20:22:17.052Z,14.80
2019-05-01T20:24:52.237Z,14.80
2019-05-01T20:27:27.565Z,14.80
2019-05-01T20:30:06.001Z,14.70
2019-05-01T20:32:40.065Z,14.70
2019-05-01T20:35:11.827Z,14.70
2019-05-01T20:38:02.159Z,14.60
2019-05-01T20:40:37.019Z,14.50
2019-05-01T20:43:13.793Z,14.60
2019-05-01T20:45:51.720Z,14.60
2019-05-01T20:48:31.604Z,14.50
2019-05-01T20:51:06.893Z,14.50
2019-05-01T20:53:42.123Z,14.50
2019-05-01T20:56:27.829Z,14.50
2019-05-01T20:59:03.335Z,14.50
2019-05-01T21:01:37.761Z,14.40
2019-05-01T21:04:31.687Z,14.30
2019-05-01T21:07:20.203Z,14.20
2019-05-01T21:09:57.702Z,14.20
2019-05-01T21:12:27.399Z,14.20
2019-05-01T21:15:03.117Z,14.00
2019-05-01T21:17:36.811Z,13.90
2019-05-01T21:20:10.133Z,13.80
2019-05-01T21:22:43.517Z,13.80
2019-05-01T21:25:17.880Z,13.70
2019-05-01T21:27:54.086Z,13.80
2019-05-01T21:30:29.494Z,13.80
2019-05-01T21:33:08.179Z,13.80
2019-05-01T21:35:38.098Z,13.70
2019-05-01T21:38:10.221Z,13.80
2019-05-01T21:40:43.828Z,13.70
2019-05-01T21:43:15.206Z,13.60
2019-05-01T21:45:48.647Z,13.70
2019-05-01T21:48:24.034Z,13.70
2019-05-01T21:51:05.502Z,13.80
2019-05-01T21:53:37.257Z,13.70
2019-05-01T21:56:08.801Z,13.70
2019-05-01T21:58:41.153Z,13.70
2019-05-01T22:01:12.602Z,13.70
2019-05-01T22:03:44.184Z,13.70
2019-05-01T22:06:16.658Z,13.60
2019-05-01T22:08:48.151Z,13.70
2019-05-01T22:11:20.018Z,13.70
2019-05-01T22:13:54.996Z,13.70
2019-05-01T22:16:27.644Z,13.60
2019-05-01T22:19:18.894Z,13.50
2019-05-01T22:22:24.589Z,13.40
2019-05-01T22:25:13.202Z,13.40
2019-05-01T22:27:49.237Z,13.40
2019-05-01T22:30:46.420Z,13.30
2019-05-01T22:33:19.172Z,13.40
2019-05-01T22:35:52.830Z,13.50
2019-05-01T22:38:24.298Z,13.60
2019-05-01T22:41:23.829Z,13.40
2019-05-01T22:43:56.910Z,13.40
2019-05-01T22:46:33.887Z,13.50
2019-05-01T22:49:02.471Z,13.30
2019-05-01T22:51:34.572Z,13.30
2019-05-01T22:54:05.629Z,13.40
2019-05-01T22:56:37.189Z,13.30
2019-05-01T22:59:08.487Z,13.30
2019-05-01T23:01:40.021Z,13.10
2019-05-01T23:04:12.250Z,13.20
2019-05-01T23:06:43.630Z,13.10
2019-05-01T23:09:16.885Z,13.00
2019-05-01T23:11:49.072Z,12.90
2019-05-01T23:14:21.871Z,12.90
2019-05-01T23:17:14.736Z,12.80
2019-05-01T23:19:46.550Z,12.70
2019-05-01T23:22:17.979Z,12.80
2019-05-01T23:24:50.950Z,12.80
2019-05-01T23:27:24.422Z,12.80
2019-05-01T23:29:54.733Z,12.70
2019-05-01T23:32:25.735Z,12.70
2019-05-01T23:34:56.970Z,12.60
2019-05-01T23:37:28.114Z,12.60
2019-05-01T23:39:59.601Z,12.50
2019-05-01T23:42:31.060Z,12.40
2019-05-01T23:45:02.889Z,12.40
2019-05-01T23:47:34.309Z,12.40
2019-05-01T23:50:06.118Z,12.40
2019-05-01T23:52:38.639Z,12.30
2019-05-01T23:55:12.312Z,12.30
2019-05-01T23:57:43.550Z,12.40
